Stations météo

réclame
Mon MeteoGroup
Aviano Usaf, Italie (16037): Température de l'air & dewpoint: 09.12.2017 20:00:00 - 15.12.2017 20:00:00 (CET)Aviano Usaf, Italie (16037): Vitesse du vent: 09.12.2017 20:00:00 - 15.12.2017 20:00:00 (CET)Aviano Usaf, Italie (16037): Direction du vent: 09.12.2017 20:00:00 - 15.12.2017 20:00:00 (CET)Aviano Usaf, Italie (16037): reduced air pressure: 09.12.2017 20:00:00 - 15.12.2017 20:00:00 (CET)Aviano Usaf, Italie (16037): Quantités de précipitations: 09.12.2017 20:00:00 - 15.12.2017 20:00:00 (CET)
Date & Time tt [°C] td [°C] ff [km/h] ff [knt] dd ppp [hPa] rr [mm]
15.12.2017 20:00:00 - - - - - - -
15.12.2017 19:00:00 8,0 5,1 11 6 ENE 997,0 -
15.12.2017 18:00:00 7,9 5,0 9 5 ENE 997,3 -
15.12.2017 17:00:00 8,2 5,3 5 3 NE 997,3 -
15.12.2017 16:00:00 9,2 5,7 8 4 E 997,4 -
15.12.2017 15:00:00 10,1 6,0 9 5 NNE 997,8 -
15.12.2017 14:00:00 10,8 5,9 9 5 ENE 998,3 -
15.12.2017 13:00:00 11,6 6,0 2 1 SE 998,5 -
15.12.2017 12:00:00 11,1 6,0 8 4 ESE 999,1 -
15.12.2017 11:00:00 9,3 6,0 8 4 E 999,6 -
15.12.2017 10:00:00 7,6 5,4 11 6 ENE 999,8 -
15.12.2017 09:00:00 7,0 5,0 13 7 NE 999,8 -
15.12.2017 08:00:00 6,8 4,6 15 8 NE 999,7 -
15.12.2017 07:00:00 6,4 4,0 13 7 NE 999,9 -
15.12.2017 06:00:00 5,8 3,3 8 4 NE 1000,2 -
15.12.2017 05:00:00 5,2 2,5 5 3 ENE 1000,5 -
15.12.2017 04:00:00 5,2 2,5 5 3 E 1001,2 -
15.12.2017 03:00:00 5,7 3,2 4 2 ENE 1001,5 -
15.12.2017 02:00:00 5,8 3,3 2 1 E 1002,0 -
15.12.2017 01:00:00 5,8 2,9 4 2 N 1002,7 0,0
15.12.2017 00:00:00 6,0 2,6 2 1 NE 1003,4 -
14.12.2017 23:00:00 5,6 2,6 8 4 ENE 1003,6 -
14.12.2017 22:00:00 5,8 2,9 5 3 ENE 1004,6 -
14.12.2017 21:00:00 6,1 3,2 4 2 NE 1005,2 -
14.12.2017 20:00:00 6,0 3,3 9 5 ENE 1006,0 -
14.12.2017 19:00:00 5,9 3,4 8 4 E 1006,5 -
14.12.2017 18:00:00 6,0 3,5 4 2 E 1006,5 -
14.12.2017 17:00:00 6,3 3,6 0 0 N 1006,9 -
14.12.2017 16:00:00 6,5 3,4 5 3 SE 1006,9 -
14.12.2017 15:00:00 6,8 3,4 4 2 ESE 1007,4 -
14.12.2017 14:00:00 6,4 3,0 2 1 E 1007,6 -
14.12.2017 13:00:00 6,5 3,3 2 1 SW 1008,3 -
14.12.2017 12:00:00 5,9 3,0 4 2 NW 1008,6 -
14.12.2017 11:00:00 5,7 2,7 2 1 SSE 1009,4 -
14.12.2017 10:00:00 5,1 2,2 5 3 SE 1009,4 -
14.12.2017 09:00:00 4,9 2,4 8 4 SE 1009,9 -
14.12.2017 08:00:00 4,6 2,1 5 3 E 1010,0 -
14.12.2017 07:00:00 4,5 2,2 5 3 E 1009,8 -
14.12.2017 06:00:00 4,0 1,8 4 2 E 1010,2 -
14.12.2017 05:00:00 3,9 1,6 5 3 ENE 1010,6 -
14.12.2017 04:00:00 3,9 1,4 4 2 N 1011,3 -
14.12.2017 03:00:00 3,8 1,5 9 5 ENE 1011,4 -
14.12.2017 02:00:00 3,9 1,2 4 2 E 1012,2 -
14.12.2017 01:00:00 4,0 1,2 2 1 SE 1013,0 -
14.12.2017 00:00:00 4,2 1,7 0 0 N 1013,9 -
13.12.2017 23:00:00 4,3 1,8 2 1 SE 1013,8 -
13.12.2017 22:00:00 4,0 1,7 2 1 NNE 1014,9 -
13.12.2017 21:00:00 4,1 1,9 2 1 NE 1015,5 -
13.12.2017 20:00:00 4,8 1,6 5 3 E 1015,7 -
13.12.2017 19:00:00 5,8 2,2 5 3 E 1016,1 0,0
13.12.2017 18:00:00 5,8 1,8 4 2 ENE 1016,3 -
13.12.2017 17:00:00 6,2 1,7 9 5 ENE 1016,6 -
13.12.2017 16:00:00 6,7 1,7 11 6 ESE 1016,8 -
13.12.2017 15:00:00 6,9 0,7 9 5 ESE 1017,0 -
13.12.2017 14:00:00 6,8 0,6 4 2 E 1017,6 -
13.12.2017 13:00:00 6,9 1,1 9 5 NE 1018,1 0,0
13.12.2017 12:00:00 7,0 2,6 11 6 ENE 1018,3 -
13.12.2017 11:00:00 7,1 1,7 18 10 SSE 1018,8 -
13.12.2017 10:00:00 8,0 5,3 18 10 WNW 1017,6 -
13.12.2017 09:00:00 7,4 5,4 11 6 SSW 1017,1 -
13.12.2017 08:00:00 7,2 5,0 13 7 S 1016,8 -
13.12.2017 07:00:00 6,2 3,7 15 8 S 1016,4 -
13.12.2017 06:00:00 6,8 5,3 11 6 SSW 1015,8 -
13.12.2017 05:00:00 6,1 4,4 13 7 WSW 1015,4 -
13.12.2017 04:00:00 5,5 3,5 13 7 SSW 1015,3 -
13.12.2017 03:00:00 5,7 3,3 8 4 SSW 1015,3 -
13.12.2017 02:00:00 7,0 4,4 11 6 SSW 1014,7 -
13.12.2017 01:00:00 7,0 5,0 8 4 SSW 1014,6 -
13.12.2017 00:00:00 7,3 5,1 9 5 SSW 1014,2 -
12.12.2017 23:00:00 7,4 5,0 11 6 WSW 1014,1 -
12.12.2017 22:00:00 7,5 4,9 9 5 SSW 1013,6 -
12.12.2017 21:00:00 7,6 5,0 9 5 SW 1013,4 -
12.12.2017 20:00:00 7,8 5,9 9 5 S 1013,1 -
12.12.2017 19:00:00 8,3 6,7 9 5 SSW 1012,8 -
12.12.2017 18:00:00 8,7 7,1 5 3 SW 1012,3 -
12.12.2017 17:00:00 8,8 6,6 5 3 S 1011,7 -
12.12.2017 16:00:00 9,8 7,4 5 3 ESE 1011,3 -
12.12.2017 15:00:00 10,6 8,5 0 0 N 1010,5 -
12.12.2017 14:00:00 11,1 9,0 4 2 W 1009,7 -
12.12.2017 13:00:00 11,3 9,7 4 2 W 1009,6 -
12.12.2017 12:00:00 10,9 9,5 0 0 N 1009,2 -
12.12.2017 11:00:00 10,6 9,5 2 1 NW 1009,2 -
12.12.2017 10:00:00 10,6 9,7 4 2 WNW 1008,0 -
12.12.2017 09:00:00 10,6 9,7 5 3 NNW 1006,5 -
12.12.2017 08:00:00 11,0 10,1 8 4 N 1005,2 -
12.12.2017 07:00:00 11,0 10,1 15 8 NNW 1003,8 -
12.12.2017 06:00:00 11,1 10,2 13 7 NNW 1002,9 -
12.12.2017 05:00:00 11,2 10,3 9 5 NNW 1001,9 -
12.12.2017 04:00:00 11,4 10,3 11 6 N 1001,7 -
12.12.2017 03:00:00 11,8 10,7 11 6 ENE 1000,8 -
12.12.2017 02:00:00 11,8 10,5 8 4 NE 1000,2 -
12.12.2017 01:00:00 11,9 10,6 9 5 ENE 999,7 -
12.12.2017 00:00:00 12,2 10,6 16 9 NNE 999,6 -
11.12.2017 23:00:00 11,4 10,5 13 7 NNE 998,9 -
11.12.2017 22:00:00 11,0 10,2 5 3 SE 999,3 -
11.12.2017 21:00:00 10,9 10,1 13 7 ESE 999,4 -
11.12.2017 20:00:00 10,6 9,7 4 2 ESE 1000,0 -
11.12.2017 19:00:00 10,2 9,3 9 5 S 1000,2 -
11.12.2017 18:00:00 10,2 9,3 2 1 SE 1000,0 -
11.12.2017 17:00:00 9,3 8,4 9 5 SE 999,7 -
11.12.2017 16:00:00 8,8 7,7 11 6 S 999,7 -
11.12.2017 15:00:00 8,4 7,3 16 9 SSW 1000,0 -
11.12.2017 14:00:00 8,3 7,2 11 6 S 1000,3 -
11.12.2017 13:00:00 7,9 6,8 15 8 S 1000,6 -
11.12.2017 12:00:00 7,2 6,1 13 7 S 1001,1 -
11.12.2017 11:00:00 6,2 5,0 8 4 S 1001,9 -
11.12.2017 10:00:00 5,5 4,1 5 3 SSW 1002,1 -
11.12.2017 09:00:00 5,1 3,7 9 5 SSW 1001,9 -
11.12.2017 08:00:00 4,3 2,8 5 3 S 1002,1 -
11.12.2017 07:00:00 3,8 2,1 8 4 S 1002,1 -
11.12.2017 06:00:00 3,2 1,5 9 5 S 1002,2 -
11.12.2017 05:00:00 3,0 1,3 5 3 S 1002,4 -
11.12.2017 04:00:00 2,3 0,5 8 4 S 1002,6 -
11.12.2017 03:00:00 2,3 0,5 4 2 SSE 1003,5 -
11.12.2017 02:00:00 2,1 0,1 2 1 S 1003,9 -
11.12.2017 01:00:00 1,8 -0,2 9 5 S 1004,3 -
11.12.2017 00:00:00 1,4 -0,4 15 8 S 1005,0 -
10.12.2017 23:00:00 1,0 -1,0 13 7 SSW 1005,9 -
10.12.2017 22:00:00 1,0 -1,0 8 4 S 1006,8 -
10.12.2017 21:00:00 0,8 -1,3 5 3 SW 1007,2 -
10.12.2017 20:00:00 0,6 -1,7 4 2 SW 1007,8 -
10.12.2017 19:00:00 0,6 -2,0 9 5 S 1008,2 -
10.12.2017 18:00:00 1,2 -2,8 15 8 SSW 1008,6 -
10.12.2017 17:00:00 2,3 -5,0 2 1 SSW 1009,2 -
10.12.2017 16:00:00 2,3 -5,7 2 1 SSE 1009,9 -
10.12.2017 15:00:00 2,3 -4,8 8 4 SSW 1010,1 -
10.12.2017 14:00:00 2,0 -6,2 2 1 NNE 1011,4 -
10.12.2017 13:00:00 2,4 -6,1 2 1 WNW 1012,2 0,0
10.12.2017 12:00:00 1,2 -5,2 0 0 N 1013,2 -
10.12.2017 11:00:00 0,9 -7,0 5 3 NNE 1015,0 -
10.12.2017 10:00:00 0,3 -7,3 4 2 SSW 1014,8 -
10.12.2017 09:00:00 -2,0 -9,0 9 5 SSW 1015,0 -
10.12.2017 08:00:00 -2,1 -11,0 8 4 SSW 1015,3 -
10.12.2017 07:00:00 -3,3 -11,2 11 6 S 1015,6 -
10.12.2017 06:00:00 -2,3 -9,5 8 4 SSW 1015,6 -
10.12.2017 05:00:00 -2,1 -9,4 8 4 SW 1015,8 -
10.12.2017 04:00:00 -2,8 -9,8 8 4 S 1016,4 -
10.12.2017 03:00:00 -2,7 -9,9 4 2 E 1016,5 -
10.12.2017 02:00:00 -2,3 -10,5 2 1 NW 1016,7 -
10.12.2017 01:00:00 -2,4 -11,0 5 3 SSW 1016,7 0,0
10.12.2017 00:00:00 -1,4 -10,9 9 5 W 1016,6 -
09.12.2017 23:00:00 -1,3 -11,0 11 6 SSW 1016,3 -
09.12.2017 22:00:00 -1,6 -8,9 13 7 SSW 1016,0 -
09.12.2017 21:00:00 -1,6 -7,8 5 3 S 1015,8 -
09.12.2017 20:00:00 -0,5 -5,2 5 3 S 1015,2 -

tt = Température de l'air
td = dewpoint
ff = Vitesse du vent
dd = Direction du vent
ppp = reduced air pressure
rr = Quantités de précipitations

stations d'obs. à proximité